createdAt,value
2022-08-12T00:00:50.119Z,25.90
2022-08-12T00:03:35.525Z,25.90
2022-08-12T00:06:22.141Z,25.80
2022-08-12T00:09:07.614Z,25.80
2022-08-12T00:11:53.409Z,25.80
2022-08-12T00:14:38.914Z,25.80
2022-08-12T00:17:24.235Z,25.80
2022-08-12T00:20:10.462Z,25.80
2022-08-12T00:22:59.169Z,25.80
2022-08-12T00:26:20.494Z,25.70
2022-08-12T00:29:08.862Z,25.70
2022-08-12T00:31:54.227Z,25.60
2022-08-12T00:34:39.764Z,25.70
2022-08-12T00:37:25.496Z,25.70
2022-08-12T00:40:13.649Z,25.70
2022-08-12T00:42:42.017Z,25.70
2022-08-12T00:45:09.692Z,25.60
2022-08-12T00:47:38.411Z,25.60
2022-08-12T00:50:06.734Z,25.60
2022-08-12T00:52:34.981Z,25.60
2022-08-12T00:55:04.345Z,25.60
2022-08-12T00:57:35.735Z,25.60
2022-08-12T01:00:32.127Z,25.60
2022-08-12T01:02:59.864Z,25.50
2022-08-12T01:05:45.347Z,25.50
2022-08-12T01:08:47.860Z,25.50
2022-08-12T01:11:32.726Z,25.40
2022-08-12T01:14:01.379Z,25.40
2022-08-12T01:16:29.207Z,25.40
2022-08-12T01:18:57.858Z,25.40
2022-08-12T01:21:27.269Z,25.40
2022-08-12T01:24:30.132Z,25.30
2022-08-12T01:26:56.762Z,25.30
2022-08-12T01:29:27.447Z,25.30
2022-08-12T01:31:59.122Z,25.30
2022-08-12T01:34:36.498Z,25.30
2022-08-12T01:37:07.161Z,25.20
2022-08-12T01:40:34.314Z,25.20
2022-08-12T01:42:51.045Z,25.20
2022-08-12T01:45:24.336Z,25.20
2022-08-12T01:48:23.799Z,25.10
2022-08-12T01:51:00.366Z,25.10
2022-08-12T01:53:50.952Z,25.10
2022-08-12T01:56:22.048Z,25.10
2022-08-12T01:59:12.141Z,25.00
2022-08-12T02:01:41.530Z,25.10
2022-08-12T02:04:42.543Z,25.10
2022-08-12T02:07:43.264Z,25.10
2022-08-12T02:10:50.565Z,25.10
2022-08-12T02:13:52.419Z,25.10
2022-08-12T02:16:51.060Z,25.00
2022-08-12T02:19:27.541Z,25.00
2022-08-12T02:22:21.515Z,25.10
2022-08-12T02:24:50.765Z,25.00
2022-08-12T02:27:19.778Z,25.00
2022-08-12T02:29:48.161Z,24.90
2022-08-12T02:32:15.129Z,24.90
2022-08-12T02:34:44.465Z,24.90
2022-08-12T02:37:15.316Z,24.90
2022-08-12T02:39:49.104Z,24.80
2022-08-12T02:42:19.062Z,24.80
2022-08-12T02:44:50.798Z,24.70
2022-08-12T02:47:59.161Z,24.70
2022-08-12T02:50:09.681Z,24.70
2022-08-12T02:52:37.419Z,24.70
2022-08-12T02:55:28.723Z,24.70
2022-08-12T02:58:01.019Z,24.70
2022-08-12T03:00:34.982Z,24.70
2022-08-12T03:03:05.590Z,24.60
2022-08-12T03:05:42.111Z,24.60
2022-08-12T03:08:20.199Z,24.60
2022-08-12T03:11:15.683Z,24.50
2022-08-12T03:13:46.790Z,24.50
2022-08-12T03:16:14.684Z,24.50
2022-08-12T03:18:46.361Z,24.40
2022-08-12T03:21:16.909Z,24.40
2022-08-12T03:23:45.788Z,24.40
2022-08-12T03:26:14.578Z,24.40
2022-08-12T03:28:51.144Z,24.40
2022-08-12T03:31:29.830Z,24.40
2022-08-12T03:34:08.908Z,24.40
2022-08-12T03:36:38.148Z,24.40
2022-08-12T03:39:16.895Z,24.40
2022-08-12T03:41:55.086Z,24.30
2022-08-12T03:44:56.611Z,24.30
2022-08-12T03:47:51.211Z,24.30
2022-08-12T03:50:38.095Z,24.30
2022-08-12T03:53:26.416Z,24.30
2022-08-12T03:56:11.962Z,24.30
2022-08-12T03:58:57.882Z,24.30
2022-08-12T04:01:26.805Z,24.30
2022-08-12T04:03:54.072Z,24.20
2022-08-12T04:06:34.323Z,24.20
2022-08-12T04:09:05.102Z,24.20
2022-08-12T04:12:00.102Z,24.20
2022-08-12T04:14:27.904Z,24.20
2022-08-12T04:16:57.309Z,24.10
2022-08-12T04:19:25.997Z,24.10
2022-08-12T04:22:02.955Z,24.10
2022-08-12T04:24:35.883Z,24.10
2022-08-12T04:27:09.470Z,24.10
2022-08-12T04:30:31.895Z,24.10
2022-08-12T04:32:25.770Z,24.10
2022-08-12T04:34:52.810Z,24.10
2022-08-12T04:37:19.880Z,24.10
2022-08-12T04:39:47.309Z,24.10
2022-08-12T04:42:14.315Z,24.10
2022-08-12T04:44:42.113Z,24.10
2022-08-12T04:47:15.178Z,24.10
2022-08-12T04:49:44.514Z,24.10
2022-08-12T04:52:11.235Z,24.10
2022-08-12T04:54:38.565Z,24.10
2022-08-12T04:57:06.013Z,24.10
2022-08-12T04:59:48.157Z,24.10
2022-08-12T05:02:21.613Z,24.10
2022-08-12T05:04:51.125Z,24.10
2022-08-12T05:07:18.064Z,24.10
2022-08-12T05:09:59.949Z,24.10
2022-08-12T05:12:34.087Z,24.10
2022-08-12T05:15:01.008Z,24.10
2022-08-12T05:17:28.237Z,24.10
2022-08-12T05:19:57.191Z,24.10
2022-08-12T05:22:27.616Z,24.20
2022-08-12T05:24:54.833Z,24.20
2022-08-12T05:27:22.775Z,24.20
2022-08-12T05:30:08.162Z,24.20
2022-08-12T05:32:36.411Z,24.20
2022-08-12T05:35:06.246Z,24.20
2022-08-12T05:37:36.082Z,24.20
2022-08-12T05:40:09.960Z,24.20
2022-08-12T05:42:37.755Z,24.20
2022-08-12T05:45:04.947Z,24.30
2022-08-12T05:47:44.883Z,24.20
2022-08-12T05:50:19.362Z,24.30
2022-08-12T05:52:46.029Z,24.30
2022-08-12T05:55:15.023Z,24.30
2022-08-12T05:57:41.676Z,24.30
2022-08-12T06:00:08.736Z,24.30
2022-08-12T06:02:35.654Z,24.30
2022-08-12T06:05:02.840Z,24.30
2022-08-12T06:07:59.970Z,24.20
2022-08-12T06:10:17.631Z,24.30
2022-08-12T06:12:59.158Z,24.20
2022-08-12T06:15:25.803Z,24.30
2022-08-12T06:17:52.842Z,24.30
2022-08-12T06:20:26.635Z,24.20
2022-08-12T06:22:55.382Z,24.20
2022-08-12T06:25:22.346Z,24.30
2022-08-12T06:28:06.769Z,24.30
2022-08-12T06:30:38.673Z,24.30
2022-08-12T06:33:18.475Z,24.40
2022-08-12T06:35:50.221Z,24.30
2022-08-12T06:38:23.061Z,24.30
2022-08-12T06:41:11.764Z,24.40
2022-08-12T06:44:04.933Z,24.40
2022-08-12T06:46:36.011Z,24.40
2022-08-12T06:49:02.688Z,24.40
2022-08-12T06:51:32.075Z,24.40
2022-08-12T06:54:00.864Z,24.40
2022-08-12T06:56:59.641Z,24.50
2022-08-12T06:59:21.125Z,24.50
2022-08-12T07:01:50.810Z,24.50
2022-08-12T07:04:36.898Z,24.60
2022-08-12T07:07:07.361Z,24.60
2022-08-12T07:10:01.168Z,24.60
2022-08-12T07:12:21.861Z,24.60
2022-08-12T07:14:51.721Z,24.50
2022-08-12T07:17:18.795Z,24.60
2022-08-12T07:19:47.045Z,24.60
2022-08-12T07:22:16.447Z,24.60
2022-08-12T07:24:43.224Z,24.70
2022-08-12T07:27:10.061Z,24.70
2022-08-12T07:29:57.958Z,24.70
2022-08-12T07:32:25.497Z,24.70
2022-08-12T07:34:56.835Z,24.70
2022-08-12T07:37:25.086Z,24.80
2022-08-12T07:40:00.280Z,24.80
2022-08-12T07:42:29.289Z,24.80
2022-08-12T07:44:56.377Z,24.90
2022-08-12T07:47:23.701Z,24.90
2022-08-12T07:50:03.273Z,24.90
2022-08-12T07:52:42.069Z,24.80
2022-08-12T07:55:10.272Z,24.80
2022-08-12T07:57:49.921Z,24.80
2022-08-12T08:00:30.493Z,24.90
2022-08-12T08:03:08.283Z,24.90
2022-08-12T08:05:54.624Z,24.80
2022-08-12T08:08:26.685Z,24.80
2022-08-12T08:11:17.851Z,24.80
2022-08-12T08:13:46.017Z,24.80
2022-08-12T08:16:15.185Z,24.80
2022-08-12T08:18:43.509Z,24.80
2022-08-12T08:21:10.997Z,24.80
2022-08-12T08:23:58.890Z,24.90
2022-08-12T08:26:32.558Z,24.90
2022-08-12T08:28:59.697Z,24.90
2022-08-12T08:31:26.338Z,24.90
2022-08-12T08:34:09.214Z,24.90
2022-08-12T08:36:41.759Z,24.90
2022-08-12T08:39:09.486Z,24.80
2022-08-12T08:42:17.302Z,25.00
2022-08-12T08:44:43.052Z,24.90
2022-08-12T08:47:13.389Z,24.90
2022-08-12T08:49:41.092Z,25.00
2022-08-12T08:52:10.640Z,25.00
2022-08-12T08:54:38.045Z,25.00
2022-08-12T08:57:08.111Z,25.00
2022-08-12T08:59:35.127Z,25.10
2022-08-12T09:02:02.528Z,25.10
2022-08-12T09:05:11.867Z,25.10
2022-08-12T09:07:51.022Z,25.10
2022-08-12T09:10:09.296Z,25.10
2022-08-12T09:13:08.602Z,25.10
2022-08-12T09:18:41.206Z,25.10
2022-08-12T09:21:15.510Z,25.20
2022-08-12T09:26:30.105Z,25.20
2022-08-12T09:28:58.055Z,25.30
2022-08-12T09:32:04.292Z,25.20
2022-08-12T09:34:25.242Z,25.30
2022-08-12T09:37:02.866Z,25.30
2022-08-12T09:40:05.114Z,25.30
2022-08-12T09:43:04.919Z,25.30
2022-08-12T09:46:20.332Z,25.30
2022-08-12T09:48:24.891Z,25.30
2022-08-12T09:50:55.187Z,25.30
2022-08-12T09:53:29.527Z,25.40
2022-08-12T09:57:00.627Z,25.40
2022-08-12T09:58:59.915Z,25.60
2022-08-12T10:01:35.265Z,25.60
2022-08-12T10:04:19.872Z,25.60
2022-08-12T10:06:54.358Z,25.60
2022-08-12T10:09:56.831Z,25.60
2022-08-12T10:12:32.863Z,25.60
2022-08-12T10:16:00.885Z,25.70
2022-08-12T10:18:06.885Z,25.70
2022-08-12T10:20:34.592Z,25.70
2022-08-12T10:23:01.940Z,25.60
2022-08-12T10:26:18.284Z,25.70
2022-08-12T10:29:02.567Z,25.70
2022-08-12T10:32:19.521Z,25.60
2022-08-12T10:34:25.885Z,25.60
2022-08-12T10:36:58.621Z,25.60
2022-08-12T10:40:01.942Z,25.70
2022-08-12T10:42:39.769Z,25.70
2022-08-12T10:45:14.344Z,25.60
2022-08-12T10:48:01.598Z,25.60
2022-08-12T10:50:58.614Z,25.60
2022-08-12T10:53:43.688Z,25.70
2022-08-12T10:56:09.413Z,25.60
2022-08-12T10:58:36.934Z,25.60
2022-08-12T11:01:49.097Z,25.60
2022-08-12T11:04:22.846Z,25.60
2022-08-12T11:07:05.237Z,25.60
2022-08-12T11:09:42.021Z,25.50
2022-08-12T11:12:55.254Z,25.50
2022-08-12T11:15:19.411Z,25.50
2022-08-12T11:17:53.829Z,25.60
2022-08-12T11:20:24.449Z,25.60
2022-08-12T11:23:04.316Z,25.70
2022-08-12T11:25:56.020Z,25.70
2022-08-12T11:28:34.685Z,25.70
2022-08-12T11:31:04.740Z,25.70
2022-08-12T11:34:04.319Z,25.80
2022-08-12T11:36:21.755Z,25.90
2022-08-12T11:38:50.471Z,26.00
2022-08-12T11:41:31.878Z,26.00
2022-08-12T11:44:35.529Z,26.10
2022-08-12T11:46:54.500Z,26.10
2022-08-12T11:49:31.189Z,26.10
2022-08-12T11:52:01.814Z,26.10
2022-08-12T11:54:29.664Z,26.00
2022-08-12T11:56:59.592Z,26.00
2022-08-12T12:02:20.593Z,26.00
2022-08-12T12:04:52.108Z,26.00
2022-08-12T12:08:36.247Z,26.00
2022-08-12T12:10:16.138Z,26.00
2022-08-12T12:12:50.086Z,25.90
2022-08-12T12:15:25.182Z,25.90
2022-08-12T12:17:55.883Z,25.90
2022-08-12T12:20:26.045Z,25.90
2022-08-12T12:22:57.202Z,25.90
2022-08-12T12:26:06.585Z,26.00
2022-08-12T12:28:36.789Z,26.00
2022-08-12T12:30:57.909Z,26.00
2022-08-12T12:33:26.237Z,26.00
2022-08-12T12:36:20.339Z,25.90
2022-08-12T12:38:49.789Z,26.00
2022-08-12T12:41:17.245Z,26.00
2022-08-12T12:43:44.986Z,26.00
2022-08-12T12:46:23.373Z,26.00
2022-08-12T12:48:50.056Z,26.00
2022-08-12T12:51:48.987Z,26.00
2022-08-12T12:54:06.144Z,26.00
2022-08-12T12:56:40.598Z,26.10
2022-08-12T12:59:56.390Z,26.20
2022-08-12T13:01:55.539Z,26.20
2022-08-12T13:04:22.487Z,26.10
2022-08-12T13:06:51.976Z,26.30
2022-08-12T13:09:22.102Z,26.20
2022-08-12T13:11:53.287Z,26.10
2022-08-12T13:14:28.100Z,26.10
2022-08-12T13:16:57.424Z,26.10
2022-08-12T13:19:36.588Z,26.20
2022-08-12T13:22:19.952Z,26.30
2022-08-12T13:24:55.685Z,26.30
2022-08-12T13:27:50.674Z,26.30
2022-08-12T13:30:20.366Z,26.30
2022-08-12T13:32:58.713Z,26.20
2022-08-12T13:35:33.292Z,26.20
2022-08-12T13:38:02.660Z,26.20
2022-08-12T13:40:33.137Z,26.30
2022-08-12T13:43:01.730Z,26.40
2022-08-12T13:45:30.970Z,26.60
2022-08-12T13:48:02.029Z,26.80
2022-08-12T13:50:32.731Z,26.90
2022-08-12T13:53:23.163Z,26.90
2022-08-12T13:55:59.335Z,26.90
2022-08-12T13:58:28.340Z,26.80
2022-08-12T14:00:58.097Z,26.70
2022-08-12T14:03:28.588Z,26.80
2022-08-12T14:06:15.584Z,26.90
2022-08-12T14:08:43.159Z,27.00
2022-08-12T14:11:12.497Z,26.90
2022-08-12T14:14:05.978Z,26.90
2022-08-12T14:16:37.916Z,26.90
2022-08-12T14:19:24.241Z,27.00
2022-08-12T14:21:59.595Z,27.00
2022-08-12T14:24:31.483Z,26.90
2022-08-12T14:27:01.973Z,27.00
2022-08-12T14:29:38.114Z,27.10
2022-08-12T14:32:17.360Z,27.10
2022-08-12T14:34:47.213Z,27.20
2022-08-12T14:37:55.440Z,27.30
2022-08-12T14:40:01.140Z,27.50
2022-08-12T14:42:54.419Z,27.50
2022-08-12T14:45:23.022Z,27.30
2022-08-12T14:47:53.636Z,27.20
2022-08-12T14:50:58.743Z,27.00
2022-08-12T14:55:18.159Z,27.00
2022-08-12T14:59:23.422Z,27.20
2022-08-12T15:01:52.028Z,27.30
2022-08-12T15:04:28.677Z,27.20
2022-08-12T15:06:56.114Z,27.20
2022-08-12T15:09:29.255Z,27.20
2022-08-12T15:12:03.296Z,27.10
2022-08-12T15:14:32.109Z,27.10
2022-08-12T15:17:02.588Z,27.20
2022-08-12T15:20:28.500Z,27.40
2022-08-12T15:22:37.479Z,27.60
2022-08-12T15:25:07.544Z,27.70
2022-08-12T15:28:10.929Z,27.60
2022-08-12T15:30:30.762Z,27.50
2022-08-12T15:32:57.591Z,27.60
2022-08-12T15:35:38.147Z,27.80
2022-08-12T15:38:19.455Z,28.10
2022-08-12T15:40:55.441Z,28.30
2022-08-12T15:44:14.103Z,28.50
2022-08-12T15:46:15.951Z,28.50
2022-08-12T15:48:47.605Z,28.30
2022-08-12T15:51:58.480Z,28.30
2022-08-12T15:54:33.276Z,28.40
2022-08-12T15:57:05.529Z,28.50
2022-08-12T16:00:00.777Z,28.80
2022-08-12T16:02:19.695Z,28.90
2022-08-12T16:04:50.313Z,28.90
2022-08-12T16:07:26.041Z,28.70
2022-08-12T16:10:08.508Z,28.60
2022-08-12T16:12:42.063Z,28.60
2022-08-12T16:15:15.100Z,28.70
2022-08-12T16:18:15.039Z,28.80
2022-08-12T16:20:33.987Z,28.90
2022-08-12T16:23:35.868Z,29.40
2022-08-12T16:26:05.234Z,29.20
2022-08-12T16:28:33.566Z,28.70
2022-08-12T16:31:01.937Z,28.40
2022-08-12T16:33:59.763Z,28.30
2022-08-12T16:36:25.466Z,28.20
2022-08-12T16:38:52.342Z,28.20
2022-08-12T16:41:19.021Z,28.30
2022-08-12T16:43:46.599Z,28.30
2022-08-12T16:46:31.432Z,28.50
2022-08-12T16:49:04.115Z,29.10
2022-08-12T16:51:40.497Z,29.50
2022-08-12T16:54:12.714Z,29.80
2022-08-12T16:56:50.953Z,29.90
2022-08-12T16:59:21.787Z,30.20
2022-08-12T17:01:49.556Z,30.40
2022-08-12T17:04:17.495Z,30.20
2022-08-12T17:06:47.919Z,30.00
2022-08-12T17:09:16.914Z,30.30
2022-08-12T17:11:49.385Z,30.40
2022-08-12T17:14:20.327Z,30.50
2022-08-12T17:16:51.843Z,30.30
2022-08-12T17:19:20.611Z,30.10
2022-08-12T17:22:09.711Z,30.10
2022-08-12T17:24:43.754Z,30.30
2022-08-12T17:27:15.858Z,30.30
2022-08-12T17:30:02.630Z,30.30
2022-08-12T17:32:33.546Z,30.20
2022-08-12T17:35:19.765Z,30.20
2022-08-12T17:37:48.588Z,30.40
2022-08-12T17:40:34.729Z,30.60
2022-08-12T17:43:57.703Z,30.70
2022-08-12T17:45:59.054Z,30.80
2022-08-12T17:48:34.306Z,31.10
2022-08-12T17:51:06.848Z,31.40
2022-08-12T17:54:05.487Z,31.10
2022-08-12T17:56:23.322Z,31.10
2022-08-12T17:58:58.675Z,30.80
2022-08-12T18:01:25.808Z,30.90
2022-08-12T18:04:21.595Z,30.90
2022-08-12T18:06:49.181Z,30.90
2022-08-12T18:09:17.793Z,30.80
2022-08-12T18:12:07.946Z,30.70
2022-08-12T18:14:38.154Z,30.30
2022-08-12T18:17:09.784Z,29.70
2022-08-12T18:20:05.283Z,29.40
2022-08-12T18:22:40.768Z,29.10
2022-08-12T18:26:11.537Z,28.90
2022-08-12T18:28:16.009Z,28.70
2022-08-12T18:30:52.390Z,28.40
2022-08-12T18:33:24.852Z,28.30
2022-08-12T18:35:55.662Z,28.10
2022-08-12T18:38:25.361Z,28.00
2022-08-12T18:41:21.777Z,27.80
2022-08-12T18:44:10.570Z,27.60
2022-08-12T18:46:47.425Z,27.50
2022-08-12T18:49:21.592Z,27.40
2022-08-12T18:52:02.362Z,27.40
2022-08-12T18:54:35.482Z,27.30
2022-08-12T18:57:19.454Z,27.20
2022-08-12T19:00:02.130Z,27.20
2022-08-12T19:02:36.129Z,27.20
2022-08-12T19:05:10.146Z,27.10
2022-08-12T19:07:58.124Z,27.10
2022-08-12T19:10:29.991Z,27.10
2022-08-12T19:13:21.093Z,27.20
2022-08-12T19:15:53.173Z,27.20
2022-08-12T19:18:22.147Z,27.20
2022-08-12T19:20:50.734Z,27.20
2022-08-12T19:23:20.952Z,27.10
2022-08-12T19:25:59.634Z,27.10
2022-08-12T19:28:34.973Z,27.10
2022-08-12T19:31:56.252Z,27.10
2022-08-12T19:35:32.908Z,27.00
2022-08-12T19:38:03.077Z,27.00
2022-08-12T19:40:32.668Z,26.90
2022-08-12T19:43:19.495Z,26.90
2022-08-12T19:45:56.558Z,26.90
2022-08-12T19:48:27.879Z,26.90
2022-08-12T19:50:57.897Z,26.90
2022-08-12T19:53:27.647Z,26.90
2022-08-12T19:55:56.247Z,26.90
2022-08-12T19:58:26.972Z,26.90
2022-08-12T20:00:55.348Z,26.80
2022-08-12T20:03:38.907Z,26.70
2022-08-12T20:06:13.826Z,26.60
2022-08-12T20:08:48.849Z,26.70
2022-08-12T20:12:13.147Z,26.70
2022-08-12T20:14:09.665Z,26.70
2022-08-12T20:19:52.531Z,26.70
2022-08-12T20:22:24.439Z,26.70
2022-08-12T20:25:01.661Z,26.70
2022-08-12T20:28:03.007Z,26.70
2022-08-12T20:30:52.569Z,26.80
2022-08-12T20:33:18.575Z,26.70
2022-08-12T20:36:06.628Z,26.80
2022-08-12T20:38:37.228Z,26.80
2022-08-12T20:41:14.805Z,26.80
2022-08-12T20:43:43.969Z,26.80
2022-08-12T20:46:13.328Z,26.80
2022-08-12T20:48:44.240Z,26.80
2022-08-12T20:51:15.835Z,26.70
2022-08-12T20:53:54.301Z,26.70
2022-08-12T20:56:31.181Z,26.70
2022-08-12T20:58:59.815Z,26.80
2022-08-12T21:01:36.525Z,26.80
2022-08-12T21:04:31.797Z,26.70
2022-08-12T21:07:04.595Z,26.70
2022-08-12T21:09:44.120Z,26.70
2022-08-12T21:12:27.700Z,26.70
2022-08-12T21:15:17.472Z,26.70
2022-08-12T21:18:09.224Z,26.70
2022-08-12T21:20:43.113Z,26.70
2022-08-12T21:23:10.559Z,26.70
2022-08-12T21:25:44.231Z,26.80
2022-08-12T21:28:12.630Z,26.70
2022-08-12T21:31:10.899Z,26.70
2022-08-12T21:33:31.601Z,26.70
2022-08-12T21:36:00.926Z,26.60
2022-08-12T21:38:34.279Z,26.60
2022-08-12T21:41:07.008Z,26.60
2022-08-12T21:43:44.798Z,26.60
2022-08-12T21:46:35.327Z,26.70
2022-08-12T21:49:04.772Z,26.60
2022-08-12T21:51:49.017Z,26.60
2022-08-12T21:54:22.023Z,26.60
2022-08-12T21:56:52.937Z,26.50
2022-08-12T21:59:21.867Z,26.50
2022-08-12T22:01:49.610Z,26.50
2022-08-12T22:04:36.870Z,26.50
2022-08-12T22:07:06.812Z,26.50
2022-08-12T22:09:42.761Z,26.50
2022-08-12T22:12:29.014Z,26.40
2022-08-12T22:14:55.847Z,26.40
2022-08-12T22:17:33.684Z,26.30
2022-08-12T22:20:01.860Z,26.30
2022-08-12T22:22:34.136Z,26.30
2022-08-12T22:25:01.067Z,26.30
2022-08-12T22:27:32.335Z,26.20
2022-08-12T22:30:20.086Z,26.20
2022-08-12T22:32:51.513Z,26.20
2022-08-12T22:35:56.051Z,26.10
2022-08-12T22:38:26.670Z,26.10
2022-08-12T22:41:00.701Z,26.10
2022-08-12T22:44:00.982Z,26.10
2022-08-12T22:46:32.970Z,26.00
2022-08-12T22:49:00.115Z,26.00
2022-08-12T22:51:30.357Z,25.90
2022-08-12T22:54:36.033Z,25.80
2022-08-12T22:57:05.073Z,25.80
2022-08-12T22:59:51.432Z,25.80
2022-08-12T23:02:28.774Z,25.80
2022-08-12T23:04:58.080Z,25.70
2022-08-12T23:07:24.761Z,25.70
2022-08-12T23:09:51.834Z,25.70
2022-08-12T23:12:46.606Z,25.70
2022-08-12T23:15:14.358Z,25.70
2022-08-12T23:17:41.765Z,25.70
2022-08-12T23:20:11.048Z,25.70
2022-08-12T23:22:38.529Z,25.70
2022-08-12T23:25:07.956Z,25.70
2022-08-12T23:28:06.400Z,25.70
2022-08-12T23:30:58.595Z,25.70
2022-08-12T23:34:00.229Z,25.70
2022-08-12T23:36:31.894Z,25.70
2022-08-12T23:40:13.261Z,25.70
2022-08-12T23:42:17.654Z,25.70
2022-08-12T23:44:47.070Z,25.60
2022-08-12T23:47:16.228Z,25.60
2022-08-12T23:49:56.207Z,25.60
2022-08-12T23:52:28.546Z,25.60
2022-08-12T23:55:05.045Z,25.60
2022-08-12T23:58:18.064Z,25.50
